createdAt,value
2022-08-29T00:00:23.648Z,57.90
2022-08-29T00:02:55.359Z,57.80
2022-08-29T00:05:26.304Z,57.70
2022-08-29T00:08:00.989Z,58.10
2022-08-29T00:10:34.080Z,57.70
2022-08-29T00:13:05.151Z,58.30
2022-08-29T00:15:44.795Z,58.50
2022-08-29T00:18:14.240Z,57.70
2022-08-29T00:20:45.871Z,57.90
2022-08-29T00:23:14.067Z,57.80
2022-08-29T00:25:45.354Z,58.10
2022-08-29T00:28:13.594Z,58.50
2022-08-29T00:30:42.490Z,58.00
2022-08-29T00:33:10.877Z,57.60
2022-08-29T00:35:43.718Z,57.80
2022-08-29T00:38:15.813Z,57.90
2022-08-29T00:40:52.315Z,57.80
2022-08-29T00:43:24.536Z,57.80
2022-08-29T00:46:01.994Z,58.10
2022-08-29T00:48:31.446Z,58.10
2022-08-29T00:51:04.358Z,57.80
2022-08-29T00:53:37.826Z,57.70
2022-08-29T00:56:09.568Z,57.50
2022-08-29T00:58:42.845Z,57.30
2022-08-29T01:01:10.991Z,57.10
2022-08-29T01:03:42.975Z,56.60
2022-08-29T01:06:13.485Z,57.20
2022-08-29T01:08:42.214Z,57.60
2022-08-29T01:11:32.724Z,56.70
2022-08-29T01:14:02.234Z,56.30
2022-08-29T01:16:31.500Z,57.40
2022-08-29T01:19:02.616Z,57.60
2022-08-29T01:21:37.510Z,57.40
2022-08-29T01:24:14.921Z,56.60
2022-08-29T01:26:46.024Z,56.70
2022-08-29T01:29:14.637Z,56.70
2022-08-29T01:31:57.340Z,56.00
2022-08-29T01:34:27.396Z,56.60
2022-08-29T01:36:58.159Z,56.60
2022-08-29T01:39:29.760Z,56.40
2022-08-29T01:42:01.156Z,56.50
2022-08-29T01:44:30.048Z,56.20
2022-08-29T01:47:03.396Z,56.10
2022-08-29T01:49:32.928Z,56.70
2022-08-29T01:52:02.068Z,56.50
2022-08-29T01:54:31.355Z,56.60
2022-08-29T01:57:01.487Z,57.10
2022-08-29T01:59:31.371Z,56.80
2022-08-29T02:02:03.729Z,57.10
2022-08-29T02:04:31.867Z,57.20
2022-08-29T02:07:00.705Z,57.40
2022-08-29T02:09:30.257Z,57.60
2022-08-29T02:12:03.059Z,58.20
2022-08-29T02:14:31.691Z,57.90
2022-08-29T02:17:04.726Z,58.00
2022-08-29T02:19:33.076Z,57.50
2022-08-29T02:22:02.597Z,57.80
2022-08-29T02:24:31.141Z,57.50
2022-08-29T02:27:00.931Z,57.60
2022-08-29T02:29:37.449Z,58.30
2022-08-29T02:32:07.160Z,58.20
2022-08-29T02:34:37.871Z,57.80
2022-08-29T02:37:07.515Z,58.00
2022-08-29T02:39:35.587Z,57.20
2022-08-29T02:42:06.332Z,56.90
2022-08-29T02:44:34.312Z,57.00
2022-08-29T02:47:02.428Z,57.20
2022-08-29T02:49:30.434Z,57.30
2022-08-29T02:52:02.439Z,57.40
2022-08-29T02:54:31.262Z,57.30
2022-08-29T02:56:59.296Z,57.00
2022-08-29T02:59:31.073Z,57.30
2022-08-29T03:01:59.173Z,56.80
2022-08-29T03:04:27.499Z,57.20
2022-08-29T03:06:56.840Z,56.80
2022-08-29T03:09:25.022Z,57.10
2022-08-29T03:11:56.100Z,56.30
2022-08-29T03:14:24.429Z,56.20
2022-08-29T03:16:53.967Z,56.50
2022-08-29T03:19:22.862Z,56.30
2022-08-29T03:21:51.207Z,56.60
2022-08-29T03:24:26.470Z,56.90
2022-08-29T03:26:57.100Z,57.00
2022-08-29T03:29:27.042Z,57.10
2022-08-29T03:31:58.222Z,56.60
2022-08-29T03:34:26.588Z,56.60
2022-08-29T03:36:54.664Z,56.60
2022-08-29T03:39:22.727Z,56.80
2022-08-29T03:41:52.066Z,57.30
2022-08-29T03:44:20.224Z,57.10
2022-08-29T03:46:48.334Z,57.50
2022-08-29T03:49:17.861Z,58.10
2022-08-29T03:51:45.900Z,58.50
2022-08-29T03:54:17.051Z,57.90
2022-08-29T03:56:46.103Z,57.50
2022-08-29T03:59:14.891Z,57.80
2022-08-29T04:01:43.223Z,57.40
2022-08-29T04:04:31.333Z,57.10
2022-08-29T04:07:01.802Z,57.50
2022-08-29T04:09:30.324Z,58.30
2022-08-29T04:11:58.341Z,57.90
2022-08-29T04:14:26.636Z,58.30
2022-08-29T04:16:54.845Z,58.00
2022-08-29T04:19:23.458Z,58.30
2022-08-29T04:21:51.700Z,58.10
2022-08-29T04:24:21.098Z,58.10
2022-08-29T04:26:49.109Z,57.60
2022-08-29T04:29:17.367Z,57.10
2022-08-29T04:31:45.488Z,57.00
2022-08-29T04:34:14.214Z,56.80
2022-08-29T04:36:45.281Z,56.80
2022-08-29T04:39:14.127Z,56.80
2022-08-29T04:41:44.079Z,57.30
2022-08-29T04:44:13.399Z,58.20
2022-08-29T04:46:41.595Z,57.60
2022-08-29T04:49:10.171Z,57.40
2022-08-29T04:51:38.219Z,57.40
2022-08-29T04:54:07.206Z,56.90
2022-08-29T04:56:37.466Z,56.80
2022-08-29T04:59:06.827Z,56.60
2022-08-29T05:01:35.409Z,57.70
2022-08-29T05:04:06.121Z,57.70
2022-08-29T05:06:34.220Z,57.50
2022-08-29T05:09:02.253Z,57.40
2022-08-29T05:11:32.816Z,56.70
2022-08-29T05:14:02.420Z,56.90
2022-08-29T05:16:36.989Z,56.80
2022-08-29T05:19:08.362Z,56.60
2022-08-29T05:21:39.352Z,56.30
2022-08-29T05:24:09.007Z,56.30
2022-08-29T05:26:39.056Z,56.50
2022-08-29T05:29:09.026Z,56.00
2022-08-29T05:31:38.833Z,55.90
2022-08-29T05:34:27.871Z,56.50
2022-08-29T05:36:54.863Z,55.40
2022-08-29T05:39:22.886Z,56.10
2022-08-29T05:41:51.173Z,57.00
2022-08-29T05:44:20.479Z,58.20
2022-08-29T05:46:49.806Z,57.60
2022-08-29T05:49:17.838Z,57.70
2022-08-29T05:51:45.889Z,57.20
2022-08-29T05:54:13.905Z,57.70
2022-08-29T05:56:42.903Z,57.40
2022-08-29T05:59:12.605Z,57.70
2022-08-29T06:01:41.471Z,58.20
2022-08-29T06:04:11.097Z,57.00
2022-08-29T06:06:41.641Z,57.20
2022-08-29T06:09:10.348Z,57.10
2022-08-29T06:11:38.621Z,57.40
2022-08-29T06:14:07.640Z,57.20
2022-08-29T06:16:35.682Z,56.90
2022-08-29T06:19:03.687Z,56.50
2022-08-29T06:21:33.327Z,56.40
2022-08-29T06:24:01.403Z,56.20
2022-08-29T06:26:31.431Z,56.20
2022-08-29T06:29:00.106Z,56.00
2022-08-29T06:31:29.625Z,56.50
2022-08-29T06:33:59.994Z,55.80
2022-08-29T06:36:29.469Z,55.70
2022-08-29T06:39:00.196Z,56.00
2022-08-29T06:41:28.797Z,56.40
2022-08-29T06:44:01.009Z,55.80
2022-08-29T06:46:31.246Z,56.00
2022-08-29T06:49:00.974Z,56.70
2022-08-29T06:51:32.955Z,56.40
2022-08-29T06:54:02.925Z,56.40
2022-08-29T06:56:31.347Z,55.80
2022-08-29T06:58:59.830Z,56.60
2022-08-29T07:01:28.396Z,55.70
2022-08-29T07:03:57.929Z,56.90
2022-08-29T07:06:27.952Z,55.80
2022-08-29T07:08:56.876Z,56.20
2022-08-29T07:11:27.871Z,56.70
2022-08-29T07:13:58.059Z,55.30
2022-08-29T07:16:27.613Z,55.10
2022-08-29T07:18:56.158Z,55.50
2022-08-29T07:21:26.403Z,55.30
2022-08-29T07:23:56.094Z,54.60
2022-08-29T07:26:28.652Z,54.00
2022-08-29T07:28:59.082Z,53.50
2022-08-29T07:31:30.839Z,54.10
2022-08-29T07:34:02.628Z,53.80
2022-08-29T07:36:34.303Z,53.70
2022-08-29T07:39:04.331Z,52.00
2022-08-29T07:41:33.837Z,52.20
2022-08-29T07:44:01.871Z,54.00
2022-08-29T07:46:31.476Z,53.10
2022-08-29T07:49:00.673Z,53.50
2022-08-29T07:51:29.539Z,53.10
2022-08-29T07:53:58.346Z,53.40
2022-08-29T07:56:29.365Z,53.70
2022-08-29T07:59:00.433Z,53.20
2022-08-29T08:01:28.802Z,52.80
2022-08-29T08:03:57.291Z,54.10
2022-08-29T08:06:27.554Z,53.40
2022-08-29T08:08:56.852Z,53.50
2022-08-29T08:11:26.791Z,50.90
2022-08-29T08:13:56.283Z,50.20
2022-08-29T08:16:28.141Z,49.80
2022-08-29T08:18:57.033Z,51.40
2022-08-29T08:21:26.124Z,51.00
2022-08-29T08:23:54.767Z,50.90
2022-08-29T08:26:23.531Z,50.40
2022-08-29T08:28:51.938Z,50.60
2022-08-29T08:31:21.203Z,50.90
2022-08-29T08:33:51.901Z,51.10
2022-08-29T08:36:22.683Z,50.30
2022-08-29T08:38:52.537Z,50.30
2022-08-29T08:41:32.047Z,51.20
2022-08-29T08:44:04.593Z,50.30
2022-08-29T08:46:37.608Z,49.20
2022-08-29T08:49:10.315Z,48.00
2022-08-29T08:51:43.457Z,48.00
2022-08-29T08:54:20.168Z,48.20
2022-08-29T08:56:52.044Z,49.50
2022-08-29T08:59:23.995Z,49.50
2022-08-29T09:02:06.474Z,48.50
2022-08-29T09:04:50.171Z,49.10
2022-08-29T09:07:39.419Z,49.10
2022-08-29T09:10:21.910Z,48.50
2022-08-29T09:12:58.503Z,48.60
2022-08-29T09:15:34.907Z,48.80
2022-08-29T09:18:07.886Z,48.70
2022-08-29T09:20:39.610Z,47.90
2022-08-29T09:23:15.816Z,47.90
2022-08-29T09:25:43.999Z,48.10
2022-08-29T09:28:12.327Z,48.80
2022-08-29T09:30:43.983Z,49.00
2022-08-29T09:33:17.292Z,48.10
2022-08-29T09:35:53.486Z,47.30
2022-08-29T09:38:25.153Z,45.50
2022-08-29T09:40:56.391Z,46.20
2022-08-29T09:43:27.961Z,46.80
2022-08-29T09:46:27.033Z,47.20
2022-08-29T09:49:13.744Z,46.90
2022-08-29T09:51:44.582Z,48.10
2022-08-29T09:54:19.781Z,46.50
2022-08-29T09:56:51.763Z,47.10
2022-08-29T09:59:26.525Z,46.80
2022-08-29T10:02:14.099Z,47.20
2022-08-29T10:04:46.554Z,46.80
2022-08-29T10:07:20.456Z,47.20
2022-08-29T10:09:57.562Z,47.70
2022-08-29T10:12:32.141Z,45.40
2022-08-29T10:15:03.942Z,46.30
2022-08-29T10:17:57.061Z,46.40
2022-08-29T10:20:29.404Z,45.70
2022-08-29T10:23:09.753Z,45.80
2022-08-29T10:25:40.366Z,46.20
2022-08-29T10:28:16.199Z,46.20
2022-08-29T10:30:54.049Z,45.80
2022-08-29T10:33:34.247Z,45.60
2022-08-29T10:36:09.868Z,46.30
2022-08-29T10:38:48.390Z,45.50
2022-08-29T10:41:29.466Z,47.00
2022-08-29T10:44:11.918Z,45.50
2022-08-29T10:46:57.394Z,46.80
2022-08-29T10:49:40.710Z,44.90
2022-08-29T10:52:19.148Z,45.90
2022-08-29T10:54:55.316Z,45.30
2022-08-29T10:57:42.119Z,45.60
2022-08-29T11:00:14.149Z,45.20
2022-08-29T11:02:53.437Z,44.60
2022-08-29T11:05:27.639Z,45.40
2022-08-29T11:08:02.354Z,46.20
2022-08-29T11:10:40.306Z,45.50
2022-08-29T11:13:15.538Z,45.30
2022-08-29T11:15:48.571Z,45.60
2022-08-29T11:18:25.579Z,47.60
2022-08-29T11:21:01.747Z,45.40
2022-08-29T11:23:37.317Z,45.80
2022-08-29T11:26:13.482Z,46.00
2022-08-29T11:28:51.351Z,45.90
2022-08-29T11:31:28.302Z,45.50
2022-08-29T11:34:04.473Z,45.10
2022-08-29T11:36:52.667Z,45.70
2022-08-29T11:39:50.802Z,46.00
2022-08-29T11:45:23.766Z,47.70
2022-08-29T11:48:01.839Z,46.80
2022-08-29T11:50:33.819Z,46.70
2022-08-29T11:53:10.537Z,46.10
2022-08-29T11:55:41.008Z,47.10
2022-08-29T11:58:46.153Z,47.20
2022-08-29T12:01:52.917Z,46.30
2022-08-29T12:04:53.749Z,46.10
2022-08-29T12:07:33.077Z,46.10
2022-08-29T12:10:05.034Z,46.50
2022-08-29T12:12:45.848Z,44.90
2022-08-29T12:15:56.424Z,44.00
2022-08-29T12:18:46.436Z,45.10
2022-08-29T12:21:48.702Z,45.40
2022-08-29T12:24:41.339Z,45.70
2022-08-29T12:27:46.931Z,44.40
2022-08-29T12:30:15.222Z,44.50
2022-08-29T12:32:59.378Z,44.60
2022-08-29T12:35:59.329Z,45.20
2022-08-29T12:38:40.023Z,43.60
2022-08-29T12:41:34.523Z,44.50
2022-08-29T12:44:06.999Z,44.20
2022-08-29T12:46:40.253Z,44.00
2022-08-29T12:49:19.508Z,43.00
2022-08-29T12:51:51.902Z,43.80
2022-08-29T12:54:33.956Z,43.70
2022-08-29T12:57:04.059Z,42.70
2022-08-29T12:59:32.571Z,44.10
2022-08-29T13:02:00.919Z,42.60
2022-08-29T13:04:33.735Z,43.90
2022-08-29T13:07:04.058Z,42.80
2022-08-29T13:09:38.974Z,42.30
2022-08-29T13:12:17.608Z,41.40
2022-08-29T13:14:58.897Z,41.80
2022-08-29T13:17:29.567Z,42.30
2022-08-29T13:20:36.667Z,41.90
2022-08-29T13:23:09.341Z,41.60
2022-08-29T13:25:45.865Z,41.80
2022-08-29T13:28:16.285Z,41.30
2022-08-29T13:30:48.786Z,42.20
2022-08-29T13:33:34.927Z,41.40
2022-08-29T13:36:30.180Z,42.00
2022-08-29T13:39:15.114Z,42.00
2022-08-29T13:41:45.157Z,42.40
2022-08-29T13:44:17.917Z,42.20
2022-08-29T13:46:47.454Z,42.30
2022-08-29T13:49:20.764Z,42.20
2022-08-29T13:51:48.961Z,42.70
2022-08-29T13:54:17.315Z,42.20
2022-08-29T13:56:50.796Z,42.70
2022-08-29T13:59:24.175Z,42.80
2022-08-29T14:02:09.385Z,42.40
2022-08-29T14:04:40.636Z,42.20
2022-08-29T14:07:12.539Z,42.50
2022-08-29T14:09:42.700Z,42.60
2022-08-29T14:12:12.510Z,42.60
2022-08-29T14:14:40.899Z,42.80
2022-08-29T14:17:09.218Z,41.80
2022-08-29T14:19:38.899Z,42.80
2022-08-29T14:22:07.494Z,43.10
2022-08-29T14:24:35.639Z,42.40
2022-08-29T14:27:05.415Z,42.00
2022-08-29T14:29:37.591Z,42.00
2022-08-29T14:32:07.678Z,42.30
2022-08-29T14:34:37.518Z,42.60
2022-08-29T14:37:09.420Z,42.30
2022-08-29T14:39:37.679Z,42.60
2022-08-29T14:42:06.578Z,43.30
2022-08-29T14:44:36.034Z,42.00
2022-08-29T14:47:04.612Z,43.10
2022-08-29T14:49:33.051Z,42.20
2022-08-29T14:52:01.054Z,42.40
2022-08-29T14:54:29.131Z,42.50
2022-08-29T14:56:57.456Z,42.80
2022-08-29T14:59:28.063Z,42.50
2022-08-29T15:01:57.486Z,42.80
2022-08-29T15:04:35.466Z,42.30
2022-08-29T15:07:05.330Z,42.10
2022-08-29T15:09:33.541Z,42.40
2022-08-29T15:12:01.713Z,42.40
2022-08-29T15:14:31.455Z,42.70
2022-08-29T15:17:00.917Z,43.00
2022-08-29T15:20:31.723Z,42.50
2022-08-29T15:22:18.349Z,42.80
2022-08-29T15:24:47.598Z,42.60
2022-08-29T15:27:17.837Z,42.90
2022-08-29T15:29:47.366Z,43.40
2022-08-29T15:32:19.332Z,43.10
2022-08-29T15:34:48.175Z,42.80
2022-08-29T15:37:17.359Z,42.40
2022-08-29T15:39:46.586Z,42.90
2022-08-29T15:42:17.284Z,42.60
2022-08-29T15:44:46.733Z,43.10
2022-08-29T15:47:25.663Z,42.90
2022-08-29T15:49:58.956Z,42.20
2022-08-29T15:52:27.105Z,42.30
2022-08-29T15:54:55.596Z,41.70
2022-08-29T15:57:26.739Z,41.80
2022-08-29T15:59:59.115Z,41.80
2022-08-29T16:02:29.064Z,42.10
2022-08-29T16:04:57.751Z,42.00
2022-08-29T16:07:29.305Z,41.80
2022-08-29T16:10:00.039Z,41.70
2022-08-29T16:12:30.936Z,42.10
2022-08-29T16:15:01.080Z,41.50
2022-08-29T16:17:32.194Z,42.20
2022-08-29T16:20:03.205Z,42.40
2022-08-29T16:22:33.881Z,42.40
2022-08-29T16:25:01.975Z,42.20
2022-08-29T16:27:31.504Z,42.40
2022-08-29T16:30:01.331Z,42.50
2022-08-29T16:32:33.782Z,42.70
2022-08-29T16:35:04.812Z,43.00
2022-08-29T16:37:33.418Z,42.70
2022-08-29T16:40:03.955Z,42.70
2022-08-29T16:42:33.883Z,42.80
2022-08-29T16:45:02.719Z,42.10
2022-08-29T16:47:32.387Z,42.40
2022-08-29T16:50:01.485Z,42.50
2022-08-29T16:52:32.436Z,42.90
2022-08-29T16:55:00.882Z,42.80
2022-08-29T16:57:29.171Z,42.70
2022-08-29T16:59:57.215Z,43.20
2022-08-29T17:02:26.064Z,43.80
2022-08-29T17:04:55.519Z,43.40
2022-08-29T17:07:32.336Z,44.10
2022-08-29T17:10:01.487Z,45.10
2022-08-29T17:12:29.931Z,45.20
2022-08-29T17:14:57.022Z,45.50
2022-08-29T17:17:25.151Z,46.60
2022-08-29T17:19:58.401Z,46.00
2022-08-29T17:22:31.776Z,46.50
2022-08-29T17:25:00.476Z,46.70
2022-08-29T17:27:30.205Z,47.80
2022-08-29T17:29:59.921Z,47.40
2022-08-29T17:32:29.617Z,47.90
2022-08-29T17:34:59.320Z,47.20
2022-08-29T17:37:27.846Z,47.80
2022-08-29T17:40:05.631Z,48.10
2022-08-29T17:42:33.781Z,48.20
2022-08-29T17:45:01.979Z,47.60
2022-08-29T17:47:29.983Z,47.60
2022-08-29T17:49:59.938Z,48.40
2022-08-29T17:52:27.977Z,48.00
2022-08-29T17:54:59.644Z,48.20
2022-08-29T17:57:30.248Z,48.30
2022-08-29T17:59:58.235Z,47.60
2022-08-29T18:02:26.309Z,47.60
2022-08-29T18:04:54.794Z,46.70
2022-08-29T18:07:27.038Z,46.70
2022-08-29T18:09:59.431Z,46.30
2022-08-29T18:12:27.430Z,46.40
2022-08-29T18:14:55.608Z,46.30
2022-08-29T18:17:23.612Z,46.20
2022-08-29T18:19:51.908Z,45.90
2022-08-29T18:22:20.071Z,45.30
2022-08-29T18:24:49.448Z,45.20
2022-08-29T18:27:22.075Z,44.80
2022-08-29T18:29:52.380Z,44.60
2022-08-29T18:32:22.059Z,45.00
2022-08-29T18:34:51.251Z,44.80
2022-08-29T18:37:19.672Z,44.50
2022-08-29T18:39:49.534Z,44.60
2022-08-29T18:42:38.863Z,44.70
2022-08-29T18:45:07.431Z,45.50
2022-08-29T18:47:35.442Z,45.10
2022-08-29T18:50:25.259Z,46.10
2022-08-29T18:52:54.449Z,45.20
2022-08-29T18:55:25.269Z,45.30
2022-08-29T18:57:54.492Z,45.60
2022-08-29T19:00:22.871Z,45.70
2022-08-29T19:02:50.955Z,45.50
2022-08-29T19:05:20.391Z,45.30
2022-08-29T19:07:49.890Z,46.20
2022-08-29T19:10:22.012Z,46.40
2022-08-29T19:12:57.364Z,46.40
2022-08-29T19:15:28.390Z,46.20
2022-08-29T19:17:56.821Z,46.40
2022-08-29T19:20:44.714Z,46.30
2022-08-29T19:23:13.685Z,46.50
2022-08-29T19:25:45.602Z,46.30
2022-08-29T19:28:18.207Z,46.80
2022-08-29T19:30:52.112Z,47.80
2022-08-29T19:33:21.178Z,47.60
2022-08-29T19:35:51.348Z,48.10
2022-08-29T19:38:21.183Z,48.60
2022-08-29T19:40:56.315Z,49.40
2022-08-29T19:43:31.599Z,49.70
2022-08-29T19:46:03.204Z,50.10
2022-08-29T19:48:33.126Z,50.30
2022-08-29T19:51:02.876Z,50.70
2022-08-29T19:53:31.196Z,50.40
2022-08-29T19:56:00.937Z,50.50
2022-08-29T19:58:32.452Z,50.90
2022-08-29T20:01:02.819Z,51.20
2022-08-29T20:03:33.102Z,51.10
2022-08-29T20:06:08.088Z,51.10
2022-08-29T20:08:41.364Z,51.30
2022-08-29T20:11:12.664Z,51.40
2022-08-29T20:13:47.585Z,51.60
2022-08-29T20:16:20.511Z,51.70
2022-08-29T20:18:51.874Z,52.10
2022-08-29T20:21:20.588Z,52.00
2022-08-29T20:23:51.427Z,51.80
2022-08-29T20:26:23.266Z,51.20
2022-08-29T20:28:59.762Z,50.40
2022-08-29T20:31:29.549Z,49.90
2022-08-29T20:33:58.280Z,49.80
2022-08-29T20:36:47.356Z,49.60
2022-08-29T20:39:17.966Z,49.90
2022-08-29T20:41:50.261Z,50.10
2022-08-29T20:44:20.895Z,50.00
2022-08-29T20:46:50.251Z,49.30
2022-08-29T20:49:21.730Z,50.20
2022-08-29T20:51:51.176Z,51.20
2022-08-29T20:54:22.371Z,50.90
2022-08-29T20:56:53.627Z,51.70
2022-08-29T20:59:26.642Z,52.10
2022-08-29T21:01:56.492Z,52.10
2022-08-29T21:04:43.649Z,52.10
2022-08-29T21:07:14.345Z,51.40
2022-08-29T21:09:44.250Z,51.10
2022-08-29T21:12:14.920Z,50.90
2022-08-29T21:14:44.744Z,50.50
2022-08-29T21:17:15.028Z,49.80
2022-08-29T21:19:43.932Z,49.80
2022-08-29T21:22:15.123Z,49.70
2022-08-29T21:24:43.840Z,49.80
2022-08-29T21:27:14.422Z,50.70
2022-08-29T21:29:44.959Z,50.60
2022-08-29T21:32:15.111Z,50.70
2022-08-29T21:34:44.338Z,51.00
2022-08-29T21:37:15.413Z,50.60
2022-08-29T21:39:47.971Z,50.30
2022-08-29T21:42:19.207Z,50.20
2022-08-29T21:44:49.106Z,50.10
2022-08-29T21:47:18.010Z,50.10
2022-08-29T21:49:51.545Z,49.90
2022-08-29T21:52:21.570Z,50.40
2022-08-29T21:54:53.983Z,49.60
2022-08-29T21:57:40.489Z,49.30
2022-08-29T22:00:11.584Z,49.30
2022-08-29T22:02:42.196Z,49.10
2022-08-29T22:05:10.937Z,49.10
2022-08-29T22:07:40.714Z,49.40
2022-08-29T22:10:13.100Z,49.40
2022-08-29T22:12:41.101Z,49.30
2022-08-29T22:15:30.115Z,49.60
2022-08-29T22:17:58.175Z,49.60
2022-08-29T22:20:26.463Z,49.30
2022-08-29T22:22:54.559Z,49.10
2022-08-29T22:25:23.579Z,49.40
2022-08-29T22:27:51.702Z,49.30
2022-08-29T22:30:21.486Z,48.80
2022-08-29T22:33:01.325Z,49.10
2022-08-29T22:35:32.166Z,48.70
2022-08-29T22:38:00.402Z,48.70
2022-08-29T22:40:28.828Z,48.90
2022-08-29T22:42:57.804Z,49.00
2022-08-29T22:45:27.222Z,48.70
2022-08-29T22:47:55.666Z,48.60
2022-08-29T22:50:26.685Z,48.40
2022-08-29T22:52:57.334Z,49.20
2022-08-29T22:57:52.479Z,49.20
2022-08-29T23:00:22.992Z,49.00
2022-08-29T23:02:54.263Z,49.00
2022-08-29T23:05:24.090Z,48.60
2022-08-29T23:07:52.366Z,48.30
2022-08-29T23:10:22.190Z,48.50
2022-08-29T23:12:51.212Z,48.80
2022-08-29T23:15:20.288Z,49.10
2022-08-29T23:17:52.079Z,49.30
2022-08-29T23:20:20.499Z,49.10
2022-08-29T23:22:48.745Z,49.70
2022-08-29T23:25:16.888Z,49.10
2022-08-29T23:27:45.722Z,49.20
2022-08-29T23:30:15.896Z,49.20
2022-08-29T23:32:45.476Z,49.30
2022-08-29T23:35:15.772Z,49.40
2022-08-29T23:37:43.786Z,49.40
2022-08-29T23:40:14.465Z,49.20
2022-08-29T23:42:42.539Z,48.80
2022-08-29T23:45:12.720Z,49.00
2022-08-29T23:47:41.470Z,49.10
2022-08-29T23:50:12.576Z,49.40
2022-08-29T23:52:43.355Z,49.90
2022-08-29T23:55:12.558Z,50.70
2022-08-29T23:57:43.583Z,51.10
